createdAt,value
2023-05-02T05:22:21.109Z,48.2020
2023-05-02T05:23:15.261Z,45.5929
2023-05-02T05:24:17.115Z,38.7125
2023-05-02T05:25:18.948Z,33.9796
2023-05-02T05:26:20.790Z,37.5471
2023-05-02T05:27:22.647Z,44.5862
2023-05-02T05:28:24.486Z,50.5669
2023-05-02T05:29:26.339Z,55.3997
2023-05-02T05:30:28.186Z,57.9863
2023-05-02T05:31:30.063Z,53.6184
2023-05-02T05:32:31.852Z,55.6517
2023-05-02T05:33:33.712Z,59.4960
2023-05-02T05:34:35.552Z,62.7606
2023-05-02T05:35:37.358Z,65.4833
2023-05-02T05:36:39.193Z,63.1036
2023-05-02T05:37:41.024Z,51.7477
2023-05-02T05:38:42.972Z,50.4533
2023-05-02T05:39:44.722Z,55.0515
2023-05-02T05:40:46.576Z,59.2944
2023-05-02T05:41:48.411Z,62.7230
2023-05-02T05:42:50.255Z,64.1636
2023-05-02T05:43:52.084Z,55.2299
2023-05-02T05:44:53.924Z,51.7308
2023-05-02T05:45:55.751Z,55.7873
2023-05-02T05:46:57.620Z,59.8774
2023-05-02T05:47:59.486Z,63.0980
2023-05-02T05:49:01.262Z,64.9757
2023-05-02T05:50:03.398Z,57.0088
2023-05-02T05:51:04.931Z,49.7278
2023-05-02T05:52:06.767Z,52.9770
2023-05-02T05:53:08.732Z,57.5358
2023-05-02T05:54:10.451Z,61.3099
2023-05-02T05:55:12.306Z,64.1415
2023-05-02T05:56:14.154Z,60.3721
2023-05-02T05:57:15.998Z,49.7756
2023-05-02T05:58:17.814Z,49.9597
2023-05-02T05:59:19.666Z,54.7674
2023-05-02T06:00:21.496Z,59.0046
2023-05-02T06:01:23.331Z,62.3453
2023-05-02T06:02:25.204Z,63.0567
2023-05-02T06:03:27.125Z,52.9823
2023-05-02T06:04:28.916Z,46.4409
2023-05-02T06:05:30.715Z,50.2616
2023-05-02T06:06:32.576Z,55.2501
2023-05-02T06:07:34.362Z,59.3524
2023-05-02T06:08:36.277Z,62.5095
2023-05-02T06:09:38.037Z,59.5875
2023-05-02T06:10:39.883Z,48.5609
2023-05-02T06:11:41.703Z,46.5592
2023-05-02T06:12:43.544Z,51.5349
2023-05-02T06:13:45.377Z,56.2783
2023-05-02T06:14:47.210Z,60.0934
2023-05-02T06:15:49.081Z,62.4739
2023-05-02T06:16:50.885Z,55.2379
2023-05-02T06:17:52.818Z,46.8951
2023-05-02T06:18:54.554Z,49.5283
2023-05-02T06:19:56.364Z,54.5298
2023-05-02T06:20:58.226Z,58.6852
2023-05-02T06:22:00.108Z,61.9080
2023-05-02T06:23:01.895Z,60.7942
2023-05-02T06:24:03.723Z,50.9356
2023-05-02T06:25:05.564Z,50.5348
2023-05-02T06:26:07.393Z,55.1618
2023-05-02T06:27:09.225Z,59.2849
2023-05-02T06:28:11.073Z,62.4195
2023-05-02T06:29:12.892Z,63.2343
2023-05-02T06:30:14.766Z,54.8920
2023-05-02T06:31:16.621Z,53.7742
2023-05-02T06:32:18.410Z,56.7546
2023-05-02T06:33:20.239Z,60.6210
2023-05-02T06:34:22.084Z,63.3139
2023-05-02T06:35:23.894Z,63.8785
2023-05-02T06:36:25.738Z,53.9419
2023-05-02T06:37:27.572Z,46.1266
2023-05-02T06:38:29.417Z,49.2592
2023-05-02T06:39:31.244Z,54.3989
2023-05-02T06:40:33.096Z,58.6666
2023-05-02T06:41:34.933Z,62.0356
2023-05-02T06:42:36.771Z,60.5718
2023-05-02T06:43:38.679Z,49.5843
2023-05-02T06:44:40.435Z,46.0869
2023-05-02T06:45:42.292Z,50.8366
2023-05-02T06:46:44.196Z,55.7132
2023-05-02T06:47:46.066Z,59.6376
2023-05-02T06:48:47.829Z,62.4174
2023-05-02T06:49:49.645Z,56.6889
2023-05-02T06:50:51.487Z,49.5289
2023-05-02T06:51:53.297Z,52.6284
2023-05-02T06:52:55.175Z,57.1235
2023-05-02T06:53:56.969Z,60.7551
2023-05-02T06:54:58.840Z,63.4051
2023-05-02T06:56:00.645Z,60.0498
2023-05-02T06:57:02.496Z,49.7963
2023-05-02T06:58:04.354Z,50.0668
2023-05-02T06:59:06.159Z,54.8400
2023-05-02T07:00:08.208Z,59.0343
2023-05-02T07:01:09.895Z,62.2859
2023-05-02T07:02:11.667Z,62.8545
2023-05-02T07:03:13.565Z,53.3378
2023-05-02T07:04:15.390Z,50.4911
2023-05-02T07:05:17.234Z,54.8171
2023-05-02T07:06:19.144Z,59.0208
2023-05-02T07:07:20.870Z,62.3127
2023-05-02T07:08:22.725Z,64.0447
2023-05-02T07:09:24.552Z,56.2851
2023-05-02T07:10:26.430Z,51.0876
2023-05-02T07:11:28.218Z,54.8565
2023-05-02T07:12:30.041Z,59.0928
2023-05-02T07:13:31.881Z,62.4278
2023-05-02T07:14:33.724Z,64.6102
2023-05-02T07:15:35.559Z,58.5272
2023-05-02T07:16:37.489Z,49.4879
2023-05-02T07:17:39.245Z,51.6553
2023-05-02T07:18:41.080Z,56.3534
2023-05-02T07:19:45.379Z,60.3054
2023-05-02T07:20:44.753Z,63.3407
2023-05-02T07:21:46.577Z,54.0975
2023-05-02T07:22:48.410Z,48.6358
2023-05-02T07:23:50.237Z,47.6962
2023-05-02T07:24:52.078Z,47.3321
2023-05-02T07:25:53.906Z,47.1156
2023-05-02T07:27:03.570Z,46.9143
2023-05-02T07:27:57.609Z,46.8128
2023-05-02T07:28:59.437Z,46.7747
2023-05-02T07:30:01.841Z,46.6971
2023-05-02T07:31:03.102Z,46.6490
2023-05-02T07:32:04.979Z,46.5877
2023-05-02T07:33:06.830Z,46.5424
2023-05-02T07:34:08.621Z,46.4440
2023-05-02T07:35:10.489Z,46.3714
2023-05-02T07:36:12.291Z,46.3807
2023-05-02T07:37:22.111Z,46.3590
2023-05-02T07:38:16.006Z,46.3883
2023-05-02T07:39:17.796Z,46.3264
2023-05-02T07:40:19.636Z,46.3209
2023-05-02T07:41:21.515Z,46.3507
2023-05-02T07:42:23.319Z,46.3103
2023-05-02T07:43:25.141Z,46.3707
2023-05-02T07:44:26.978Z,46.3134
2023-05-02T07:45:28.819Z,46.2508
2023-05-02T07:46:30.689Z,46.2418
2023-05-02T07:47:32.480Z,46.1896
2023-05-02T07:48:34.312Z,46.2182
2023-05-02T07:49:36.145Z,46.1816
2023-05-02T07:50:37.969Z,46.1959
2023-05-02T07:51:39.811Z,46.2338
2023-05-02T07:52:41.634Z,46.2264
2023-05-02T07:53:43.466Z,46.1773
2023-05-02T07:54:45.295Z,46.1419
2023-05-02T07:55:47.134Z,46.1807
2023-05-02T07:56:48.988Z,46.1571
2023-05-02T07:57:50.823Z,46.2160
2023-05-02T07:58:52.687Z,46.1914
2023-05-02T07:59:54.500Z,46.1211
2023-05-02T08:00:56.311Z,46.1162
2023-05-02T08:01:58.162Z,46.0440
2023-05-02T08:03:00.132Z,45.9951
2023-05-02T08:04:01.985Z,46.0055
2023-05-02T08:05:03.689Z,45.9586
2023-05-02T08:06:05.542Z,45.9146
2023-05-02T08:07:07.334Z,45.9586
2023-05-02T08:08:09.175Z,45.9237
2023-05-02T08:09:11.006Z,45.8594
2023-05-02T08:10:12.824Z,45.8636
2023-05-02T08:11:14.662Z,45.8276
2023-05-02T08:12:16.499Z,45.8943
2023-05-02T08:13:18.334Z,45.8915
2023-05-02T08:14:20.187Z,45.8405
2023-05-02T08:15:22.033Z,40.9995
2023-05-02T08:16:23.899Z,34.7823
2023-05-02T08:17:25.686Z,32.3307
2023-05-02T08:18:27.513Z,36.5052
2023-05-02T08:19:29.358Z,43.6089
2023-05-02T08:20:31.211Z,49.8470
2023-05-02T08:21:33.120Z,54.9566
2023-05-02T08:22:34.927Z,58.0670
2023-05-02T08:23:36.733Z,55.6496
2023-05-02T08:24:38.586Z,58.3544
2023-05-02T08:25:40.403Z,62.1190
2023-05-02T08:26:42.220Z,65.3108
2023-05-02T08:27:44.077Z,67.9615
2023-05-02T08:28:45.901Z,64.5293
2023-05-02T08:29:47.757Z,52.4776
2023-05-02T08:30:49.604Z,47.4618
2023-05-02T08:31:51.446Z,51.5419
2023-05-02T08:32:53.288Z,56.5036
2023-05-02T08:33:55.128Z,60.7593
2023-05-02T08:34:56.936Z,64.2433
2023-05-02T08:35:58.787Z,60.9778
2023-05-02T08:37:00.605Z,51.4798
2023-05-02T08:38:02.470Z,52.3349
2023-05-02T08:39:04.289Z,56.8933
2023-05-02T08:40:06.128Z,61.1062
2023-05-02T08:41:07.961Z,64.6248
2023-05-02T08:42:09.791Z,65.0648
2023-05-02T08:43:11.651Z,54.7121
2023-05-02T08:44:13.476Z,49.6075
2023-05-02T08:45:16.520Z,53.4427
2023-05-02T08:46:17.278Z,58.0868
2023-05-02T08:47:19.209Z,62.0849
2023-05-02T08:48:21.012Z,65.2985
2023-05-02T08:49:22.673Z,60.7680
2023-05-02T08:50:24.515Z,50.5261
2023-05-02T08:51:26.368Z,50.7641
2023-05-02T08:52:28.182Z,55.4291
2023-05-02T08:53:30.035Z,59.9032
2023-05-02T08:54:31.861Z,63.6060
2023-05-02T08:55:33.702Z,64.8736
2023-05-02T08:56:35.544Z,55.6488
2023-05-02T08:57:37.384Z,52.8231
2023-05-02T08:58:39.208Z,56.8705
2023-05-02T08:59:41.063Z,61.0289
2023-05-02T09:00:42.956Z,64.5254
2023-05-02T09:01:44.833Z,66.6640
2023-05-02T09:02:46.668Z,58.3938
2023-05-02T09:03:48.512Z,50.2642
2023-05-02T09:04:50.320Z,52.8793
2023-05-02T09:05:52.100Z,57.5432
2023-05-02T09:06:53.959Z,61.6230
2023-05-02T09:07:55.755Z,65.0055
2023-05-02T09:08:57.778Z,63.1220
2023-05-02T09:09:59.508Z,52.5198
2023-05-02T09:11:01.289Z,51.6236
2023-05-02T09:12:03.126Z,56.1087
2023-05-02T09:13:04.997Z,60.3849
2023-05-02T09:14:06.820Z,63.9646
2023-05-02T09:15:08.641Z,65.5128
2023-05-02T09:16:10.515Z,56.0844
2023-05-02T09:17:12.332Z,49.4688
2023-05-02T09:18:14.162Z,52.8890
2023-05-02T09:19:16.013Z,57.6060
2023-05-02T09:20:17.847Z,61.6661
2023-05-02T09:21:21.284Z,64.9816
2023-05-02T09:22:21.560Z,61.4910
2023-05-02T09:23:23.375Z,51.1728
2023-05-02T09:24:25.223Z,51.4112
2023-05-02T09:25:27.126Z,56.0640
2023-05-02T09:26:30.354Z,60.3468
2023-05-02T09:27:30.804Z,63.9283
2023-05-02T09:28:32.641Z,64.8375
2023-05-02T09:29:34.454Z,54.7497
2023-05-02T09:30:36.297Z,49.7003
2023-05-02T09:31:55.032Z,53.6567
2023-05-02T09:32:40.974Z,58.3118
2023-05-02T09:33:41.818Z,62.1771
2023-05-02T09:34:43.649Z,65.2422
2023-05-02T09:35:45.539Z,58.9114
2023-05-02T09:36:47.320Z,47.8820
2023-05-02T09:37:49.155Z,48.3323
2023-05-02T09:38:51.018Z,53.5330
2023-05-02T09:39:52.826Z,58.2621
2023-05-02T09:40:54.667Z,62.1826
2023-05-02T09:41:56.513Z,63.9292
2023-05-02T09:42:58.320Z,55.0285
2023-05-02T09:44:00.181Z,51.2151
2023-05-02T09:45:02.093Z,55.2374
2023-05-02T09:46:03.868Z,59.5894
2023-05-02T09:47:05.691Z,63.2639
2023-05-02T09:48:07.553Z,65.8424
2023-05-02T09:49:09.363Z,58.7330
2023-05-02T09:50:11.196Z,48.3297
2023-05-02T09:51:13.026Z,48.7580
2023-05-02T09:52:14.848Z,53.8572
2023-05-02T09:53:16.690Z,58.4651
2023-05-02T09:54:18.531Z,62.3195
2023-05-02T09:55:20.376Z,63.8673
2023-05-02T09:56:23.896Z,54.6218
2023-05-02T09:57:24.035Z,50.3939
2023-05-02T09:58:25.882Z,54.4621
2023-05-02T09:59:27.726Z,58.9158
2023-05-02T10:00:29.567Z,62.6943
2023-05-02T10:01:31.404Z,65.4955
2023-05-02T10:02:33.281Z,59.0631
2023-05-02T10:03:35.081Z,49.2780
2023-05-02T10:04:36.955Z,50.5843
2023-05-02T10:05:38.761Z,55.4266
2023-05-02T10:06:40.678Z,59.7608
2023-05-02T10:07:42.443Z,63.3556
2023-05-02T10:08:44.285Z,63.5394
2023-05-02T10:09:46.148Z,53.5271
2023-05-02T10:10:47.937Z,51.5764
2023-05-02T10:11:49.785Z,55.8984
2023-05-02T10:12:51.614Z,60.1518
2023-05-02T10:13:53.461Z,63.7152
2023-05-02T10:14:55.323Z,65.5992
2023-05-02T10:15:57.259Z,56.8171
2023-05-02T10:16:58.988Z,51.6861
2023-05-02T10:18:00.934Z,55.4066
2023-05-02T10:19:02.664Z,59.7725
2023-05-02T10:20:04.504Z,63.4622
2023-05-02T10:21:06.334Z,66.2021
2023-05-02T10:22:08.184Z,60.0676
2023-05-02T10:23:10.018Z,53.9028
2023-05-02T10:24:11.862Z,56.9964
2023-05-02T10:25:13.737Z,61.0334
2023-05-02T10:26:15.542Z,64.4677
2023-05-02T10:27:17.373Z,67.1243
2023-05-02T10:28:19.206Z,61.3411
2023-05-02T10:29:21.047Z,50.9591
2023-05-02T10:30:22.884Z,51.7876
2023-05-02T10:31:24.838Z,56.4268
2023-05-02T10:32:26.613Z,60.5924
2023-05-02T10:33:28.370Z,64.0712
2023-05-02T10:34:30.210Z,64.2509
2023-05-02T10:35:32.045Z,53.5621
2023-05-02T10:36:33.880Z,48.8185
2023-05-02T10:37:35.751Z,52.9387
2023-05-02T10:38:37.612Z,57.6419
2023-05-02T10:39:39.406Z,61.6301
2023-05-02T10:40:41.241Z,64.7347
2023-05-02T10:41:43.095Z,59.3459
2023-05-02T10:42:44.915Z,52.1169
2023-05-02T10:43:46.787Z,54.9681
2023-05-02T10:44:48.589Z,59.2863
2023-05-02T10:45:50.419Z,62.9711
2023-05-02T10:46:52.283Z,65.9697
2023-05-02T10:47:54.145Z,62.1160
2023-05-02T10:48:55.920Z,50.5604
2023-05-02T10:49:57.765Z,48.4928
2023-05-02T10:50:59.597Z,53.2556
2023-05-02T10:52:01.424Z,57.9250
2023-05-02T10:53:03.275Z,61.8284
2023-05-02T10:54:05.110Z,64.3773
2023-05-02T10:55:06.938Z,56.7256
2023-05-02T10:56:08.814Z,49.7697
2023-05-02T10:57:10.613Z,52.9839
2023-05-02T10:58:12.471Z,57.5801
2023-05-02T10:59:14.300Z,61.5384
2023-05-02T11:00:16.140Z,64.7627
2023-05-02T11:01:18.004Z,61.3010
2023-05-02T11:02:19.893Z,51.1649
2023-05-02T11:03:21.698Z,51.6247
2023-05-02T11:04:23.493Z,56.2249
2023-05-02T11:05:25.352Z,60.3992
2023-05-02T11:06:27.191Z,63.8787
2023-05-02T11:07:29.039Z,64.2715
2023-05-02T11:08:30.867Z,54.0841
2023-05-02T11:09:32.721Z,51.0844
2023-05-02T11:10:34.564Z,55.3111
2023-05-02T11:11:36.367Z,59.6015
2023-05-02T11:12:38.203Z,63.2215
2023-05-02T11:13:40.062Z,65.4803
2023-05-02T11:14:41.874Z,57.4398
2023-05-02T11:15:43.768Z,49.2852
2023-05-02T11:16:45.592Z,51.9702
2023-05-02T11:17:47.416Z,56.7208
2023-05-02T11:18:49.241Z,60.7932
2023-05-02T11:19:51.089Z,64.1719
2023-05-02T11:20:52.906Z,62.1319
2023-05-02T11:21:54.749Z,51.2169
2023-05-02T11:22:56.585Z,49.6244
2023-05-02T11:23:58.407Z,54.2468
2023-05-02T11:25:00.418Z,58.7166
2023-05-02T11:26:02.128Z,62.4555
2023-05-02T11:27:03.933Z,64.5551
2023-05-02T11:28:05.770Z,56.1685
2023-05-02T11:29:07.618Z,50.8243
2023-05-02T11:30:09.580Z,54.5002
2023-05-02T11:31:11.291Z,58.8549
2023-05-02T11:32:13.177Z,62.5619
2023-05-02T11:33:15.039Z,65.4083
2023-05-02T11:34:16.793Z,59.6396
2023-05-02T11:35:18.624Z,49.4975
2023-05-02T11:36:20.483Z,50.3838
2023-05-02T11:37:22.319Z,55.2015
2023-05-02T11:38:24.152Z,59.4895
2023-05-02T11:39:25.987Z,63.0569
2023-05-02T11:40:27.831Z,63.5068
2023-05-02T11:41:29.656Z,53.2284
2023-05-02T11:42:31.518Z,49.3068
2023-05-02T11:43:33.356Z,53.5098
2023-05-02T11:44:35.177Z,58.0461
2023-05-02T11:45:37.002Z,61.8857
2023-05-02T11:46:39.001Z,64.6741
2023-05-02T11:47:40.739Z,58.1057
2023-05-02T11:48:42.516Z,50.0245
2023-05-02T11:49:44.351Z,52.6320
2023-05-02T11:50:49.674Z,57.2236
2023-05-02T11:51:48.032Z,61.2387
2023-05-02T11:52:49.869Z,64.4993
2023-05-02T11:53:51.715Z,62.1211
2023-05-02T11:54:53.568Z,51.3678
2023-05-02T11:55:55.396Z,50.4942
2023-05-02T11:56:57.226Z,55.1136
2023-05-02T11:57:59.057Z,59.4097
2023-05-02T11:59:00.913Z,62.9973
2023-05-02T12:00:02.752Z,64.5311
2023-05-02T12:01:04.575Z,55.2198
2023-05-02T12:02:06.410Z,49.5891
2023-05-02T12:03:08.378Z,53.3197
2023-05-02T12:04:10.092Z,57.8642
2023-05-02T12:05:11.980Z,61.7307
2023-05-02T12:06:14.113Z,64.7840
2023-05-02T12:07:15.637Z,59.7978
2023-05-02T12:08:17.444Z,50.9532
2023-05-02T12:09:19.338Z,52.9064
2023-05-02T12:10:21.123Z,57.3921
2023-05-02T12:11:22.958Z,61.3250
2023-05-02T12:12:24.791Z,64.5571
2023-05-02T12:13:26.651Z,62.9532
2023-05-02T12:14:28.451Z,51.7659
2023-05-02T12:15:30.291Z,49.2082
2023-05-02T12:16:32.143Z,53.7407
2023-05-02T12:17:34.006Z,58.2149
2023-05-02T12:18:35.833Z,61.9762
2023-05-02T12:19:37.652Z,64.4240
2023-05-02T12:20:39.492Z,56.7890
2023-05-02T12:21:41.313Z,47.8187
2023-05-02T12:22:43.144Z,49.8429
2023-05-02T12:23:44.995Z,54.8178
2023-05-02T12:24:46.825Z,59.1325
2023-05-02T12:25:48.667Z,62.7044
2023-05-02T12:26:51.872Z,62.4134
2023-05-02T12:27:52.335Z,51.8135
2023-05-02T12:28:54.184Z,48.7518
2023-05-02T12:29:56.005Z,53.2140
2023-05-02T12:30:57.833Z,57.8049
2023-05-02T12:31:59.797Z,61.6559
2023-05-02T12:33:01.562Z,64.3495
2023-05-02T12:34:03.375Z,58.6593
2023-05-02T12:35:05.805Z,57.2702
2023-05-02T12:36:07.042Z,60.7749
2023-05-02T12:37:08.871Z,64.0686
2023-05-02T12:38:10.696Z,66.8062
2023-05-02T12:39:12.539Z,67.3759
2023-05-02T12:40:14.409Z,56.6691
2023-05-02T12:41:16.207Z,47.3112
2023-05-02T12:42:18.051Z,49.1942
2023-05-02T12:43:19.885Z,54.3559
2023-05-02T12:44:21.730Z,58.8063
2023-05-02T12:45:23.580Z,62.4862
2023-05-02T12:46:25.491Z,62.7104
2023-05-02T12:47:27.399Z,52.8584
2023-05-02T12:48:29.098Z,50.9447
2023-05-02T12:49:30.939Z,55.2922
2023-05-02T12:50:32.771Z,59.5040
2023-05-02T12:51:34.877Z,63.0352
2023-05-02T12:52:36.460Z,64.8644
2023-05-02T12:53:38.285Z,55.9726
2023-05-02T12:54:40.115Z,48.3878
2023-05-02T12:55:41.964Z,51.4123
2023-05-02T12:56:43.951Z,56.1970
2023-05-02T12:57:45.645Z,60.3010
2023-05-02T12:58:47.498Z,63.6505
2023-05-02T12:59:49.308Z,61.3037
2023-05-02T13:00:51.174Z,51.1145
2023-05-02T13:01:52.978Z,51.0338
2023-05-02T13:02:54.854Z,55.6086
2023-05-02T13:03:56.659Z,59.7949
2023-05-02T13:04:58.496Z,63.2637
2023-05-02T13:06:00.379Z,64.1443
2023-05-02T13:07:02.225Z,54.5009
2023-05-02T13:08:04.086Z,51.5282
2023-05-02T13:09:05.872Z,55.6809
2023-05-02T13:10:07.737Z,59.8158
2023-05-02T13:11:09.542Z,63.2793
2023-05-02T13:12:11.394Z,65.3556
2023-05-02T13:13:13.245Z,57.0744
2023-05-02T13:14:15.073Z,48.6407
2023-05-02T13:15:16.936Z,51.1818
2023-05-02T13:16:18.942Z,56.0012
2023-05-02T13:17:20.715Z,60.1575
2023-05-02T13:18:22.451Z,63.5847
2023-05-02T13:19:24.261Z,62.0845
2023-05-02T13:20:26.094Z,52.5547
2023-05-02T13:21:27.927Z,53.0157
2023-05-02T13:22:29.772Z,57.3513
2023-05-02T13:23:31.592Z,61.2498
2023-05-02T13:24:33.419Z,64.4587
2023-05-02T13:25:35.260Z,64.3973
2023-05-02T13:26:37.150Z,53.7190
2023-05-02T13:27:38.949Z,50.0053
2023-05-02T13:28:40.838Z,54.2272
2023-05-02T13:29:42.667Z,58.6146
2023-05-02T13:30:44.527Z,62.2914
2023-05-02T13:31:46.342Z,64.8474
2023-05-02T13:32:48.203Z,57.7425
2023-05-02T13:33:50.014Z,49.3821
2023-05-02T13:34:51.854Z,51.9208
2023-05-02T13:35:53.696Z,56.6404
2023-05-02T13:36:55.536Z,60.6903
2023-05-02T13:37:57.371Z,63.9670
2023-05-02T13:38:59.225Z,62.1378
2023-05-02T13:40:01.226Z,54.6220
2023-05-02T13:41:02.884Z,56.6183
2023-05-02T13:42:06.100Z,60.5140
2023-05-02T13:43:06.551Z,63.8458
2023-05-02T13:44:08.390Z,66.5519
2023-05-02T13:45:10.251Z,63.3221
2023-05-02T13:46:12.112Z,51.6465
2023-05-02T13:47:13.915Z,49.6973
2023-05-02T13:48:15.779Z,54.2969
2023-05-02T13:49:17.588Z,58.6838
2023-05-02T13:50:19.438Z,62.3489
2023-05-02T13:51:21.282Z,64.4359
2023-05-02T13:52:23.113Z,56.0451
2023-05-02T13:53:24.948Z,48.6550
2023-05-02T13:54:26.792Z,51.7578
2023-05-02T13:55:28.634Z,56.4558
2023-05-02T13:56:30.470Z,60.4837
2023-05-02T13:57:32.315Z,63.7785
2023-05-02T13:58:34.183Z,61.0678
2023-05-02T13:59:36.132Z,51.4118
2023-05-02T14:00:37.806Z,52.2388
2023-05-02T14:01:39.703Z,56.7478
2023-05-02T14:02:41.590Z,60.7255
2023-05-02T14:03:43.409Z,63.9892
2023-05-02T14:04:45.153Z,63.7492
2023-05-02T14:05:47.001Z,53.3892
2023-05-02T14:06:48.898Z,51.2449
2023-05-02T14:07:50.673Z,55.5654
2023-05-02T14:08:52.597Z,59.7264
2023-05-02T14:09:54.348Z,63.1768
2023-05-02T14:10:56.240Z,64.9702
2023-05-02T14:11:58.041Z,56.1215
2023-05-02T14:12:59.869Z,48.6469
2023-05-02T14:14:01.705Z,51.7360
2023-05-02T14:15:03.643Z,56.4419
2023-05-02T14:16:05.433Z,60.4567
2023-05-02T14:17:07.237Z,63.7449
2023-05-02T14:18:09.311Z,61.0672
2023-05-02T14:19:19.556Z,53.6902
2023-05-02T14:20:12.744Z,56.3233
2023-05-02T14:21:14.562Z,60.1325
2023-05-02T14:22:16.406Z,63.4991
2023-05-02T14:23:18.235Z,66.2437
2023-05-02T14:24:20.072Z,62.5861
2023-05-02T14:25:21.917Z,51.3704
2023-05-02T14:26:23.764Z,50.5743
2023-05-02T14:27:25.597Z,55.1953
2023-05-02T14:28:27.430Z,59.4614
2023-05-02T14:29:29.274Z,62.9789
2023-05-02T14:30:31.108Z,64.3679
2023-05-02T14:31:33.015Z,55.5191
2023-05-02T14:32:34.865Z,52.9346
2023-05-02T14:33:36.616Z,56.9491
2023-05-02T14:34:38.460Z,60.8766
2023-05-02T14:35:40.286Z,64.0937
2023-05-02T14:36:42.120Z,65.7645
2023-05-02T14:37:43.957Z,56.8334
2023-05-02T14:38:45.813Z,49.6016
2023-05-02T14:39:50.735Z,52.8179
2023-05-02T14:40:49.469Z,57.4790
2023-05-02T14:41:51.312Z,61.3379
2023-05-02T14:42:53.164Z,64.4554
2023-05-02T14:43:54.978Z,60.9247
2023-05-02T14:44:58.906Z,52.1444
2023-05-02T14:45:58.648Z,53.9409
2023-05-02T14:47:00.544Z,58.2264
2023-05-02T14:48:02.392Z,61.9315
2023-05-02T14:49:04.169Z,64.9488
2023-05-02T14:50:06.075Z,63.1194
2023-05-02T14:51:07.826Z,52.1488
2023-05-02T14:52:09.681Z,50.6179
2023-05-02T14:53:11.512Z,55.1885
2023-05-02T14:54:13.360Z,59.4720
2023-05-02T14:55:15.190Z,62.9969
2023-05-02T14:56:17.021Z,64.6910
2023-05-02T14:57:18.895Z,55.8793
2023-05-02T14:58:21.040Z,51.0463
2023-05-02T14:59:22.673Z,54.8529
2023-05-02T15:00:24.370Z,59.1209
2023-05-02T15:01:26.294Z,62.6773
2023-05-02T15:02:28.123Z,65.2681
2023-05-02T15:03:30.026Z,58.8171
2023-05-02T15:04:31.990Z,50.0169
2023-05-02T15:05:33.536Z,52.2346
2023-05-02T15:06:35.975Z,56.8429
2023-05-02T15:07:37.226Z,60.8022
2023-05-02T15:08:39.274Z,64.0053
2023-05-02T15:09:40.908Z,62.4340
2023-05-02T15:10:42.740Z,51.9955
2023-05-02T15:11:44.585Z,51.2077
2023-05-02T15:12:46.408Z,55.6960
2023-05-02T15:13:48.271Z,59.8087
2023-05-02T15:14:50.094Z,63.1819
2023-05-02T15:15:51.949Z,64.4167
2023-05-02T15:16:53.825Z,54.6993
2023-05-02T15:17:55.696Z,47.1005
2023-05-02T15:18:57.458Z,50.2353
2023-05-02T15:19:59.426Z,55.2099
2023-05-02T15:21:01.130Z,59.4127
2023-05-02T15:22:02.981Z,62.8316
2023-05-02T15:23:04.865Z,60.9946
2023-05-02T15:24:06.663Z,51.8669
2023-05-02T15:25:08.500Z,52.9092
2023-05-02T15:26:10.330Z,57.3251
2023-05-02T15:27:12.182Z,61.1839
2023-05-02T15:28:14.039Z,64.2995
2023-05-02T15:29:15.849Z,63.7261
2023-05-02T15:30:18.092Z,53.6172
2023-05-02T15:31:19.563Z,52.5385
2023-05-02T15:32:21.451Z,56.8357
2023-05-02T15:33:23.206Z,60.8107
2023-05-02T15:34:25.074Z,64.0500
2023-05-02T15:35:26.890Z,65.0687
2023-05-02T15:36:28.766Z,55.1605
2023-05-02T15:37:30.582Z,49.2232
2023-05-02T15:38:32.399Z,52.9724
2023-05-02T15:39:34.253Z,57.5633
2023-05-02T15:40:36.080Z,61.4006
2023-05-02T15:41:37.928Z,64.3976
2023-05-02T15:42:39.773Z,59.7534
2023-05-02T15:43:41.608Z,51.3242
2023-05-02T15:44:43.446Z,53.5541
2023-05-02T15:45:45.278Z,57.9175
2023-05-02T15:46:47.349Z,61.6354
2023-05-02T15:47:48.942Z,64.6409
2023-05-02T15:48:50.813Z,62.3751
2023-05-02T15:49:52.614Z,51.0929
2023-05-02T15:50:54.485Z,48.8019
2023-05-02T15:51:56.316Z,53.5095
2023-05-02T15:52:58.151Z,58.0581
2023-05-02T15:53:59.967Z,61.8062
2023-05-02T15:55:01.837Z,64.1769
2023-05-02T15:56:03.637Z,56.9392
2023-05-02T15:57:05.476Z,53.2899
2023-05-02T15:58:07.294Z,57.0577
2023-05-02T15:59:09.131Z,60.9629
2023-05-02T16:00:10.981Z,64.1384
2023-05-02T16:01:12.855Z,66.1484
2023-05-02T16:02:14.657Z,58.2350
2023-05-02T16:03:16.494Z,51.6369
2023-05-02T16:04:18.349Z,54.9149
2023-05-02T16:05:20.167Z,59.1815
2023-05-02T16:06:22.048Z,62.7604
2023-05-02T16:07:23.848Z,65.5387
2023-05-02T16:08:25.685Z,60.6276
2023-05-02T16:09:27.516Z,49.7106
2023-05-02T16:10:29.357Z,49.3293
2023-05-02T16:11:31.259Z,54.1666
2023-05-02T16:12:33.034Z,58.5915
2023-05-02T16:13:34.881Z,62.2291
2023-05-02T16:14:36.727Z,63.7121
2023-05-02T16:15:38.557Z,54.5025
2023-05-02T16:16:40.593Z,49.4944
2023-05-02T16:17:42.274Z,53.4035
2023-05-02T16:18:44.091Z,57.8496
2023-05-02T16:19:45.927Z,61.5551
2023-05-02T16:20:47.794Z,64.3897
2023-05-02T16:21:49.610Z,58.8644
2023-05-02T16:22:51.451Z,52.0846
2023-05-02T16:23:53.279Z,55.1012
2023-05-02T16:24:55.133Z,59.3246
2023-05-02T16:25:56.966Z,62.8414
2023-05-02T16:26:58.829Z,65.6129
2023-05-02T16:28:00.648Z,61.3382
2023-05-02T16:29:02.496Z,54.3962
2023-05-02T16:30:04.604Z,57.0548
2023-05-02T16:31:06.229Z,60.9219
2023-05-02T16:32:08.035Z,64.1562
2023-05-02T16:33:09.902Z,66.6610
2023-05-02T16:34:11.696Z,61.8321
2023-05-02T16:35:13.560Z,50.4329
2023-05-02T16:36:15.375Z,49.5114
2023-05-02T16:37:17.244Z,54.3038
2023-05-02T16:38:19.065Z,58.7320
2023-05-02T16:39:20.926Z,62.3747
2023-05-02T16:40:22.749Z,64.0890
2023-05-02T16:41:24.605Z,56.5264
2023-05-02T16:42:26.420Z,55.5415
2023-05-02T16:43:28.267Z,59.2908
2023-05-02T16:44:30.103Z,62.7003
2023-05-02T16:45:31.957Z,65.4789
2023-05-02T16:46:33.849Z,65.9326
2023-05-02T16:47:35.637Z,55.3329
2023-05-02T16:48:37.467Z,47.1316
2023-05-02T16:49:39.313Z,49.9720
2023-05-02T16:50:41.143Z,55.0424
2023-05-02T16:51:43.014Z,59.3455
2023-05-02T16:52:44.827Z,62.8516
2023-05-02T16:53:46.647Z,61.7659
2023-05-02T16:54:48.498Z,55.1374
2023-05-02T16:55:50.343Z,57.3422
2023-05-02T16:56:52.175Z,61.0657
2023-05-02T16:57:53.993Z,64.1714
2023-05-02T16:58:55.854Z,66.7335
2023-05-02T16:59:57.670Z,62.8732
2023-05-02T17:00:59.562Z,50.9183
2023-05-02T17:02:01.395Z,47.8409
2023-05-02T17:03:05.212Z,52.4935
2023-05-02T17:04:05.029Z,57.2121
2023-05-02T17:05:06.891Z,61.0972
2023-05-02T17:06:08.731Z,63.8545
2023-05-02T17:07:10.554Z,57.9225
2023-05-02T17:08:12.408Z,55.2291
2023-05-02T17:09:14.239Z,58.8175
2023-05-02T17:10:16.112Z,62.3479
2023-05-02T17:11:17.916Z,65.2448
2023-05-02T17:12:19.781Z,66.7032
2023-05-02T17:13:21.598Z,57.5439
2023-05-02T17:14:23.447Z,48.9947
2023-05-02T17:15:25.287Z,51.5606
2023-05-02T17:16:27.150Z,56.3345
2023-05-02T17:17:28.968Z,60.3768
2023-05-02T17:18:30.788Z,63.6556
2023-05-02T17:19:32.649Z,61.9349
2023-05-02T17:20:34.470Z,52.3797
2023-05-02T17:21:36.301Z,52.9311
2023-05-02T17:22:38.163Z,57.2967
2023-05-02T17:23:39.982Z,61.1284
2023-05-02T17:24:41.825Z,64.2262
2023-05-02T17:25:43.675Z,64.0533
2023-05-02T17:26:45.511Z,53.3514
2023-05-02T17:27:47.495Z,49.4115
2023-05-02T17:28:49.195Z,53.6343
2023-05-02T17:29:51.029Z,58.0728
2023-05-02T17:30:52.926Z,61.7535
2023-05-02T17:31:54.775Z,64.3808
2023-05-02T17:32:56.672Z,57.7982
2023-05-02T17:33:58.446Z,49.3960
2023-05-02T17:35:00.313Z,51.7913
2023-05-02T17:36:02.139Z,56.4364
2023-05-02T17:37:03.992Z,60.4075
2023-05-02T17:38:05.804Z,63.6007
2023-05-02T17:39:07.640Z,61.8704
2023-05-02T17:40:09.494Z,51.8335
2023-05-02T17:41:11.343Z,51.7032
2023-05-02T17:42:13.182Z,56.1942
2023-05-02T17:43:15.025Z,60.2328
2023-05-02T17:44:16.862Z,63.5049
2023-05-02T17:45:18.686Z,64.1146
2023-05-02T17:46:20.638Z,54.2063
2023-05-02T17:47:22.367Z,50.4145
2023-05-02T17:48:24.229Z,54.4743
2023-05-02T17:49:26.041Z,58.7254